createdAt,value
2018-07-16T00:06:43.850Z,24.6
2018-07-16T00:16:43.078Z,24.6
2018-07-16T00:26:42.317Z,24.4
2018-07-16T00:36:41.555Z,24.3
2018-07-16T00:46:40.796Z,24.3
2018-07-16T00:56:40.035Z,24.3
2018-07-16T01:06:39.272Z,23.9
2018-07-16T01:16:38.514Z,23.8
2018-07-16T01:26:37.751Z,23.6
2018-07-16T01:36:36.991Z,22.8
2018-07-16T01:46:36.231Z,23.4
2018-07-16T01:56:35.473Z,23.6
2018-07-16T02:06:34.708Z,23.6
2018-07-16T02:16:33.950Z,23.7
2018-07-16T02:26:33.188Z,23.7
2018-07-16T02:36:32.430Z,23.7
2018-07-16T02:46:31.668Z,23.7
2018-07-16T02:56:31.082Z,23.7
2018-07-16T03:06:30.148Z,23.6
2018-07-16T03:16:29.388Z,23.6
2018-07-16T03:26:28.635Z,23.8
2018-07-16T03:36:27.867Z,23.8
2018-07-16T03:46:27.105Z,23.9
2018-07-16T03:56:26.347Z,24
2018-07-16T04:06:25.585Z,24.1
2018-07-16T04:16:24.825Z,24.3
2018-07-16T04:26:24.067Z,24.5
2018-07-16T04:36:23.305Z,24.8
2018-07-16T04:46:22.544Z,24.9
2018-07-16T04:56:21.781Z,25.1
2018-07-16T05:06:21.021Z,25.3
2018-07-16T05:16:20.261Z,25.4
2018-07-16T05:26:19.500Z,25.6
2018-07-16T05:36:18.737Z,25.8
2018-07-16T05:46:17.978Z,25.8
2018-07-16T05:56:17.224Z,25.9
2018-07-16T06:06:16.457Z,26.1
2018-07-16T06:16:15.696Z,26.2
2018-07-16T06:26:14.935Z,26.3
2018-07-16T06:36:14.175Z,26.4
2018-07-16T06:46:13.413Z,26.5
2018-07-16T06:56:12.652Z,26.5
2018-07-16T07:06:11.892Z,26.3
2018-07-16T07:16:11.134Z,26.4
2018-07-16T07:26:10.369Z,26.6
2018-07-16T07:36:09.622Z,26.6
2018-07-16T07:46:08.849Z,26.5
2018-07-16T07:56:08.091Z,26.8
2018-07-16T08:06:07.329Z,26.8
2018-07-16T08:16:06.568Z,27.1
2018-07-16T08:26:05.807Z,27.3
2018-07-16T08:36:05.047Z,27.1
2018-07-16T08:46:04.292Z,27.1
2018-07-16T08:56:03.526Z,27.1
2018-07-16T09:06:02.764Z,27.2
2018-07-16T09:16:02.004Z,27.3
2018-07-16T09:26:01.243Z,27.6
2018-07-16T09:36:00.482Z,27.6
2018-07-16T09:45:59.725Z,27.6
2018-07-16T09:55:58.994Z,27.6
2018-07-16T10:05:58.200Z,27.7
2018-07-16T10:15:57.453Z,28.1
2018-07-16T10:25:56.721Z,28.3
2018-07-16T10:35:55.918Z,28
2018-07-16T10:45:55.159Z,28.5
2018-07-16T10:55:54.398Z,28.6
2018-07-16T11:05:53.640Z,28.3
2018-07-16T11:15:52.878Z,28.3
2018-07-16T11:25:52.124Z,28.6
2018-07-16T11:35:51.464Z,27.6
2018-07-16T11:45:50.595Z,28.1
2018-07-16T11:55:49.834Z,28.3
2018-07-16T12:05:49.079Z,28.5
2018-07-16T12:15:48.317Z,28.8
2018-07-16T12:25:47.607Z,28.3
2018-07-16T12:35:46.799Z,28.7
2018-07-16T12:45:46.132Z,28.1
2018-07-16T12:55:45.280Z,28.5
2018-07-16T13:05:44.518Z,28.5
2018-07-16T13:15:43.752Z,28.1
2018-07-16T13:25:42.991Z,27.9
2018-07-16T13:35:42.230Z,27.6
2018-07-16T13:45:41.467Z,27.5
2018-07-16T13:55:40.708Z,27.4
2018-07-16T14:05:39.949Z,27.3
2018-07-16T14:15:39.186Z,27.3
2018-07-16T14:25:38.426Z,27.3
2018-07-16T14:35:37.665Z,27.2
2018-07-16T14:45:36.905Z,27.2
2018-07-16T14:55:36.143Z,27.1
2018-07-16T15:05:35.383Z,27.1
2018-07-16T15:15:34.624Z,27.1
2018-07-16T15:25:33.862Z,27
2018-07-16T15:35:33.202Z,27
2018-07-16T15:45:32.350Z,27
2018-07-16T15:55:31.579Z,26.9
2018-07-16T16:05:30.822Z,26.9
2018-07-16T16:15:30.060Z,26.8
2018-07-16T16:25:29.297Z,26.8
2018-07-16T16:35:28.543Z,26.5
2018-07-16T16:45:27.780Z,26.3
2018-07-16T16:55:27.023Z,26.3
2018-07-16T17:05:26.258Z,26.1
2018-07-16T17:15:25.507Z,25.6
2018-07-16T17:25:24.737Z,25.8
2018-07-16T17:35:23.989Z,25.3
2018-07-16T17:45:23.228Z,24.9
2018-07-16T17:55:22.456Z,25.4
2018-07-16T18:05:21.700Z,25.3
2018-07-16T18:15:20.938Z,25.3
2018-07-16T18:25:20.181Z,25.2
2018-07-16T18:35:19.476Z,25.1
2018-07-16T18:45:18.658Z,25.1
2018-07-16T18:55:17.937Z,25.1
2018-07-16T19:05:17.138Z,25.1
2018-07-16T19:15:16.376Z,25.1
2018-07-16T19:25:15.616Z,25
2018-07-16T19:35:14.857Z,25
2018-07-16T19:45:14.148Z,25
2018-07-16T19:55:13.362Z,25
2018-07-16T20:05:12.578Z,25
2018-07-16T20:15:11.999Z,24.8
2018-07-16T20:25:11.056Z,24.8
2018-07-16T20:35:10.296Z,24.7
2018-07-16T20:45:09.534Z,24.6
2018-07-16T20:55:08.778Z,24.6
2018-07-16T21:05:08.019Z,24.5
2018-07-16T21:15:07.256Z,24.5
2018-07-16T21:25:06.496Z,24.4
2018-07-16T21:35:05.734Z,24.4
2018-07-16T21:45:04.976Z,24.4
2018-07-16T21:55:04.217Z,24.4
2018-07-16T22:05:03.456Z,24.3
2018-07-16T22:15:02.696Z,24.3
2018-07-16T22:25:02.011Z,24.3
2018-07-16T22:35:01.176Z,24.3
2018-07-16T22:45:00.416Z,24.3
2018-07-16T22:54:59.659Z,24.3
2018-07-16T23:04:58.900Z,24.3
2018-07-16T23:14:58.138Z,24.3
2018-07-16T23:24:57.379Z,24.2
2018-07-16T23:34:56.619Z,24.2
2018-07-16T23:44:55.860Z,23.6
2018-07-16T23:54:55.101Z,24
